sensor_id;sensor_type;location;lat;lon;timestamp;temperature;humidity
32640;DHT22;19049;52.524;11.468;2024-02-26T00:02:21;1.10;99.90
32640;DHT22;19049;52.524;11.468;2024-02-26T00:04:47;1.10;99.90
32640;DHT22;19049;52.524;11.468;2024-02-26T00:07:12;1.10;99.90
32640;DHT22;19049;52.524;11.468;2024-02-26T00:09:38;1.10;99.90
32640;DHT22;19049;52.524;11.468;2024-02-26T00:12:04;1.00;99.90
32640;DHT22;19049;52.524;11.468;2024-02-26T00:14:30;1.00;99.90
32640;DHT22;19049;52.524;11.468;2024-02-26T00:16:56;1.00;99.90
32640;DHT22;19049;52.524;11.468;2024-02-26T00:19:22;1.00;99.90
32640;DHT22;19049;52.524;11.468;2024-02-26T00:21:47;0.90;99.90
32640;DHT22;19049;52.524;11.468;2024-02-26T00:24:13;1.00;99.90
32640;DHT22;19049;52.524;11.468;2024-02-26T00:26:39;1.00;99.90
32640;DHT22;19049;52.524;11.468;2024-02-26T00:29:04;1.00;99.90
32640;DHT22;19049;52.524;11.468;2024-02-26T00:31:30;1.00;99.90
32640;DHT22;19049;52.524;11.468;2024-02-26T00:33:56;1.00;99.90
32640;DHT22;19049;52.524;11.468;2024-02-26T00:36:22;1.00;99.90
32640;DHT22;19049;52.524;11.468;2024-02-26T00:38:47;1.00;99.90
32640;DHT22;19049;52.524;11.468;2024-02-26T00:41:17;1.00;99.90
32640;DHT22;19049;52.524;11.468;2024-02-26T00:43:43;1.00;99.90
32640;DHT22;19049;52.524;11.468;2024-02-26T00:46:08;1.00;99.90
32640;DHT22;19049;52.524;11.468;2024-02-26T00:48:35;1.00;99.90
32640;DHT22;19049;52.524;11.468;2024-02-26T00:51:00;1.00;99.90
32640;DHT22;19049;52.524;11.468;2024-02-26T00:53:26;1.00;99.90
32640;DHT22;19049;52.524;11.468;2024-02-26T00:55:51;1.00;99.90
32640;DHT22;19049;52.524;11.468;2024-02-26T00:58:17;1.00;99.90
32640;DHT22;19049;52.524;11.468;2024-02-26T01:00:43;1.00;99.90
32640;DHT22;19049;52.524;11.468;2024-02-26T01:03:08;1.00;99.90
32640;DHT22;19049;52.524;11.468;2024-02-26T01:05:36;1.00;99.90
32640;DHT22;19049;52.524;11.468;2024-02-26T01:08:03;1.00;99.90
32640;DHT22;19049;52.524;11.468;2024-02-26T01:10:28;1.00;99.90
32640;DHT22;19049;52.524;11.468;2024-02-26T01:12:54;1.00;99.90
32640;DHT22;19049;52.524;11.468;2024-02-26T01:15:20;1.00;99.90
32640;DHT22;19049;52.524;11.468;2024-02-26T01:17:49;1.00;99.90
32640;DHT22;19049;52.524;11.468;2024-02-26T01:20:15;1.00;99.90
32640;DHT22;19049;52.524;11.468;2024-02-26T01:22:40;1.10;99.90
32640;DHT22;19049;52.524;11.468;2024-02-26T01:25:07;1.10;99.90
32640;DHT22;19049;52.524;11.468;2024-02-26T01:27:33;1.10;99.90
32640;DHT22;19049;52.524;11.468;2024-02-26T01:29:58;1.10;99.90
32640;DHT22;19049;52.524;11.468;2024-02-26T01:32:24;1.00;99.90
32640;DHT22;19049;52.524;11.468;2024-02-26T01:34:50;1.10;99.90
32640;DHT22;19049;52.524;11.468;2024-02-26T01:37:15;1.00;99.90
32640;DHT22;19049;52.524;11.468;2024-02-26T01:39:41;1.00;99.90
32640;DHT22;19049;52.524;11.468;2024-02-26T01:42:07;1.00;99.90
32640;DHT22;19049;52.524;11.468;2024-02-26T01:44:33;1.00;99.90
32640;DHT22;19049;52.524;11.468;2024-02-26T01:46:59;1.00;99.90
32640;DHT22;19049;52.524;11.468;2024-02-26T01:49:27;1.00;99.90
32640;DHT22;19049;52.524;11.468;2024-02-26T01:51:54;1.00;99.90
32640;DHT22;19049;52.524;11.468;2024-02-26T01:54:20;1.00;99.90
32640;DHT22;19049;52.524;11.468;2024-02-26T01:56:46;1.10;99.90
32640;DHT22;19049;52.524;11.468;2024-02-26T01:59:13;1.10;99.90
32640;DHT22;19049;52.524;11.468;2024-02-26T02:01:41;1.10;99.90
32640;DHT22;19049;52.524;11.468;2024-02-26T02:04:09;1.10;99.90
32640;DHT22;19049;52.524;11.468;2024-02-26T02:06:36;1.10;99.90
32640;DHT22;19049;52.524;11.468;2024-02-26T02:09:02;1.10;99.90
32640;DHT22;19049;52.524;11.468;2024-02-26T02:11:32;1.00;99.90
32640;DHT22;19049;52.524;11.468;2024-02-26T02:13:58;1.00;99.90
32640;DHT22;19049;52.524;11.468;2024-02-26T02:16:24;1.00;99.90
32640;DHT22;19049;52.524;11.468;2024-02-26T02:18:50;1.00;99.90
32640;DHT22;19049;52.524;11.468;2024-02-26T02:21:15;1.00;99.90
32640;DHT22;19049;52.524;11.468;2024-02-26T02:23:41;1.00;99.90
32640;DHT22;19049;52.524;11.468;2024-02-26T02:26:14;0.90;99.90
32640;DHT22;19049;52.524;11.468;2024-02-26T02:28:41;1.00;99.90
32640;DHT22;19049;52.524;11.468;2024-02-26T02:31:07;0.90;99.90
32640;DHT22;19049;52.524;11.468;2024-02-26T02:33:34;0.90;99.90
32640;DHT22;19049;52.524;11.468;2024-02-26T02:36:00;0.90;99.90
32640;DHT22;19049;52.524;11.468;2024-02-26T02:38:25;0.80;99.90
32640;DHT22;19049;52.524;11.468;2024-02-26T02:40:54;0.80;99.90
32640;DHT22;19049;52.524;11.468;2024-02-26T02:43:20;0.80;99.90
32640;DHT22;19049;52.524;11.468;2024-02-26T02:45:46;0.70;99.90
32640;DHT22;19049;52.524;11.468;2024-02-26T02:48:11;0.70;99.90
32640;DHT22;19049;52.524;11.468;2024-02-26T02:50:37;0.60;99.90
32640;DHT22;19049;52.524;11.468;2024-02-26T02:53:03;0.60;99.90
32640;DHT22;19049;52.524;11.468;2024-02-26T02:55:29;0.50;99.90
32640;DHT22;19049;52.524;11.468;2024-02-26T02:57:54;0.50;99.90
32640;DHT22;19049;52.524;11.468;2024-02-26T03:00:20;0.40;99.90
32640;DHT22;19049;52.524;11.468;2024-02-26T03:02:48;0.40;99.90
32640;DHT22;19049;52.524;11.468;2024-02-26T03:05:14;0.30;99.90
32640;DHT22;19049;52.524;11.468;2024-02-26T03:07:40;0.30;99.90
32640;DHT22;19049;52.524;11.468;2024-02-26T03:10:05;0.30;99.90
32640;DHT22;19049;52.524;11.468;2024-02-26T03:12:33;0.30;99.90
32640;DHT22;19049;52.524;11.468;2024-02-26T03:14:59;0.20;99.90
32640;DHT22;19049;52.524;11.468;2024-02-26T03:17:30;0.20;99.90
32640;DHT22;19049;52.524;11.468;2024-02-26T03:19:56;0.10;99.90
32640;DHT22;19049;52.524;11.468;2024-02-26T03:22:22;0.10;99.90
32640;DHT22;19049;52.524;11.468;2024-02-26T03:24:47;0.10;99.90
32640;DHT22;19049;52.524;11.468;2024-02-26T03:27:13;0.10;99.90
32640;DHT22;19049;52.524;11.468;2024-02-26T03:29:40;0.10;99.90
32640;DHT22;19049;52.524;11.468;2024-02-26T03:32:06;0.10;99.90
32640;DHT22;19049;52.524;11.468;2024-02-26T03:34:32;0.10;99.90
32640;DHT22;19049;52.524;11.468;2024-02-26T03:37:00;0.10;99.90
32640;DHT22;19049;52.524;11.468;2024-02-26T03:39:25;0.00;99.90
32640;DHT22;19049;52.524;11.468;2024-02-26T03:41:51;0.10;99.90
32640;DHT22;19049;52.524;11.468;2024-02-26T03:44:17;0.10;99.90
32640;DHT22;19049;52.524;11.468;2024-02-26T03:46:42;0.10;99.90
32640;DHT22;19049;52.524;11.468;2024-02-26T03:49:08;0.10;99.90
32640;DHT22;19049;52.524;11.468;2024-02-26T03:51:34;0.10;99.90
32640;DHT22;19049;52.524;11.468;2024-02-26T03:54:00;0.10;99.90
32640;DHT22;19049;52.524;11.468;2024-02-26T03:56:26;0.10;99.90
32640;DHT22;19049;52.524;11.468;2024-02-26T03:58:53;0.20;99.90
32640;DHT22;19049;52.524;11.468;2024-02-26T04:01:18;0.10;99.90
32640;DHT22;19049;52.524;11.468;2024-02-26T04:03:44;0.10;99.90
32640;DHT22;19049;52.524;11.468;2024-02-26T04:06:10;0.10;99.90
32640;DHT22;19049;52.524;11.468;2024-02-26T04:08:37;0.20;99.90
32640;DHT22;19049;52.524;11.468;2024-02-26T04:11:03;0.10;99.90
32640;DHT22;19049;52.524;11.468;2024-02-26T04:13:33;0.10;99.90
32640;DHT22;19049;52.524;11.468;2024-02-26T04:15:59;0.10;99.90
32640;DHT22;19049;52.524;11.468;2024-02-26T04:18:27;0.10;99.90
32640;DHT22;19049;52.524;11.468;2024-02-26T04:20:53;0.10;99.90
32640;DHT22;19049;52.524;11.468;2024-02-26T04:23:18;0.10;99.90
32640;DHT22;19049;52.524;11.468;2024-02-26T04:25:44;0.10;99.90
32640;DHT22;19049;52.524;11.468;2024-02-26T04:28:10;0.10;99.90
32640;DHT22;19049;52.524;11.468;2024-02-26T04:30:36;0.10;99.90
32640;DHT22;19049;52.524;11.468;2024-02-26T04:33:02;0.10;99.90
32640;DHT22;19049;52.524;11.468;2024-02-26T04:35:27;0.00;99.90
32640;DHT22;19049;52.524;11.468;2024-02-26T04:37:53;0.00;99.90
32640;DHT22;19049;52.524;11.468;2024-02-26T04:40:18;0.00;99.90
32640;DHT22;19049;52.524;11.468;2024-02-26T04:42:44;0.00;99.90
32640;DHT22;19049;52.524;11.468;2024-02-26T04:45:10;0.00;99.90
32640;DHT22;19049;52.524;11.468;2024-02-26T04:47:35;0.00;99.90
32640;DHT22;19049;52.524;11.468;2024-02-26T04:50:01;0.10;99.90
32640;DHT22;19049;52.524;11.468;2024-02-26T04:52:27;0.00;99.90
32640;DHT22;19049;52.524;11.468;2024-02-26T04:54:52;0.00;99.90
32640;DHT22;19049;52.524;11.468;2024-02-26T04:57:18;0.10;99.90
32640;DHT22;19049;52.524;11.468;2024-02-26T04:59:44;0.10;99.90
32640;DHT22;19049;52.524;11.468;2024-02-26T05:02:11;0.10;99.90
32640;DHT22;19049;52.524;11.468;2024-02-26T05:04:37;0.10;99.90
32640;DHT22;19049;52.524;11.468;2024-02-26T05:07:03;0.10;99.90
32640;DHT22;19049;52.524;11.468;2024-02-26T05:09:29;0.10;99.90
32640;DHT22;19049;52.524;11.468;2024-02-26T05:11:54;0.10;99.90
32640;DHT22;19049;52.524;11.468;2024-02-26T05:14:20;0.00;99.90
32640;DHT22;19049;52.524;11.468;2024-02-26T05:16:47;0.00;99.90
32640;DHT22;19049;52.524;11.468;2024-02-26T05:19:13;0.00;99.90
32640;DHT22;19049;52.524;11.468;2024-02-26T05:21:38;0.00;99.90
32640;DHT22;19049;52.524;11.468;2024-02-26T05:24:05;0.00;99.90
32640;DHT22;19049;52.524;11.468;2024-02-26T05:26:31;0.00;99.90
32640;DHT22;19049;52.524;11.468;2024-02-26T05:28:57;0.00;99.90
32640;DHT22;19049;52.524;11.468;2024-02-26T05:31:26;0.00;99.90
32640;DHT22;19049;52.524;11.468;2024-02-26T05:33:52;0.00;99.90
32640;DHT22;19049;52.524;11.468;2024-02-26T05:36:21;0.00;99.90
32640;DHT22;19049;52.524;11.468;2024-02-26T05:38:48;0.00;99.90
32640;DHT22;19049;52.524;11.468;2024-02-26T05:41:17;0.00;99.90
32640;DHT22;19049;52.524;11.468;2024-02-26T05:43:49;0.00;99.90
32640;DHT22;19049;52.524;11.468;2024-02-26T05:46:19;0.00;99.90
32640;DHT22;19049;52.524;11.468;2024-02-26T05:48:47;0.00;99.90
32640;DHT22;19049;52.524;11.468;2024-02-26T05:51:13;0.10;99.90
32640;DHT22;19049;52.524;11.468;2024-02-26T05:53:40;0.10;99.90
32640;DHT22;19049;52.524;11.468;2024-02-26T05:56:06;0.10;99.90
32640;DHT22;19049;52.524;11.468;2024-02-26T05:58:32;0.10;99.90
32640;DHT22;19049;52.524;11.468;2024-02-26T06:00:57;0.00;99.90
32640;DHT22;19049;52.524;11.468;2024-02-26T06:03:23;0.10;99.90
32640;DHT22;19049;52.524;11.468;2024-02-26T06:05:49;0.10;99.90
32640;DHT22;19049;52.524;11.468;2024-02-26T06:08:15;0.10;99.90
32640;DHT22;19049;52.524;11.468;2024-02-26T06:10:41;0.10;99.90
32640;DHT22;19049;52.524;11.468;2024-02-26T06:13:06;0.10;99.90
32640;DHT22;19049;52.524;11.468;2024-02-26T06:15:32;0.10;99.90
32640;DHT22;19049;52.524;11.468;2024-02-26T06:17:57;0.20;99.90
32640;DHT22;19049;52.524;11.468;2024-02-26T06:20:23;0.20;99.90
32640;DHT22;19049;52.524;11.468;2024-02-26T06:22:49;0.20;99.90
32640;DHT22;19049;52.524;11.468;2024-02-26T06:25:14;0.20;99.90
32640;DHT22;19049;52.524;11.468;2024-02-26T06:27:40;0.20;99.90
32640;DHT22;19049;52.524;11.468;2024-02-26T06:30:06;0.30;99.90
32640;DHT22;19049;52.524;11.468;2024-02-26T06:32:32;0.30;99.90
32640;DHT22;19049;52.524;11.468;2024-02-26T06:34:58;0.30;99.90
32640;DHT22;19049;52.524;11.468;2024-02-26T06:37:23;0.40;99.90
32640;DHT22;19049;52.524;11.468;2024-02-26T06:39:49;0.50;99.90
32640;DHT22;19049;52.524;11.468;2024-02-26T06:42:14;0.60;99.90
32640;DHT22;19049;52.524;11.468;2024-02-26T06:44:40;0.70;99.90
32640;DHT22;19049;52.524;11.468;2024-02-26T06:47:05;0.80;99.90
32640;DHT22;19049;52.524;11.468;2024-02-26T06:49:31;1.00;99.90
32640;DHT22;19049;52.524;11.468;2024-02-26T06:51:57;1.00;99.90
32640;DHT22;19049;52.524;11.468;2024-02-26T06:54:22;1.10;99.90
32640;DHT22;19049;52.524;11.468;2024-02-26T06:56:48;1.20;99.90
32640;DHT22;19049;52.524;11.468;2024-02-26T06:59:13;1.40;99.90
32640;DHT22;19049;52.524;11.468;2024-02-26T07:01:42;1.50;99.90
32640;DHT22;19049;52.524;11.468;2024-02-26T07:04:08;1.60;99.90
32640;DHT22;19049;52.524;11.468;2024-02-26T07:06:34;1.70;99.90
32640;DHT22;19049;52.524;11.468;2024-02-26T07:08:59;1.80;99.90
32640;DHT22;19049;52.524;11.468;2024-02-26T07:11:25;1.90;99.90
32640;DHT22;19049;52.524;11.468;2024-02-26T07:13:50;2.00;99.90
32640;DHT22;19049;52.524;11.468;2024-02-26T07:16:16;2.00;99.90
32640;DHT22;19049;52.524;11.468;2024-02-26T07:18:42;2.10;99.90
32640;DHT22;19049;52.524;11.468;2024-02-26T07:21:11;2.20;99.90
32640;DHT22;19049;52.524;11.468;2024-02-26T07:23:37;2.20;99.90
32640;DHT22;19049;52.524;11.468;2024-02-26T07:26:03;2.30;99.90
32640;DHT22;19049;52.524;11.468;2024-02-26T07:28:28;2.30;99.90
32640;DHT22;19049;52.524;11.468;2024-02-26T07:30:54;2.40;99.90
32640;DHT22;19049;52.524;11.468;2024-02-26T07:33:20;2.50;99.90
32640;DHT22;19049;52.524;11.468;2024-02-26T07:35:46;2.50;99.90
32640;DHT22;19049;52.524;11.468;2024-02-26T07:38:11;2.60;99.90
32640;DHT22;19049;52.524;11.468;2024-02-26T07:40:38;2.70;99.90
32640;DHT22;19049;52.524;11.468;2024-02-26T07:43:04;2.80;99.90
32640;DHT22;19049;52.524;11.468;2024-02-26T07:45:30;2.90;99.90
32640;DHT22;19049;52.524;11.468;2024-02-26T07:47:55;3.00;99.90
32640;DHT22;19049;52.524;11.468;2024-02-26T07:50:21;3.10;99.90
32640;DHT22;19049;52.524;11.468;2024-02-26T07:52:47;3.20;99.90
32640;DHT22;19049;52.524;11.468;2024-02-26T07:55:12;3.30;99.90
32640;DHT22;19049;52.524;11.468;2024-02-26T07:57:42;3.30;99.90
32640;DHT22;19049;52.524;11.468;2024-02-26T08:00:08;3.40;99.90
32640;DHT22;19049;52.524;11.468;2024-02-26T08:02:34;3.50;99.90
32640;DHT22;19049;52.524;11.468;2024-02-26T08:05:00;3.60;99.90
32640;DHT22;19049;52.524;11.468;2024-02-26T08:07:26;3.60;99.90
32640;DHT22;19049;52.524;11.468;2024-02-26T08:09:51;3.70;99.90
32640;DHT22;19049;52.524;11.468;2024-02-26T08:12:17;3.80;99.90
32640;DHT22;19049;52.524;11.468;2024-02-26T08:14:42;3.90;99.90
32640;DHT22;19049;52.524;11.468;2024-02-26T08:17:09;4.00;99.90
32640;DHT22;19049;52.524;11.468;2024-02-26T08:19:35;4.10;99.90
32640;DHT22;19049;52.524;11.468;2024-02-26T08:22:01;4.20;99.90
32640;DHT22;19049;52.524;11.468;2024-02-26T08:24:27;4.30;99.90
32640;DHT22;19049;52.524;11.468;2024-02-26T08:26:52;4.40;99.90
32640;DHT22;19049;52.524;11.468;2024-02-26T08:29:18;4.50;99.90
32640;DHT22;19049;52.524;11.468;2024-02-26T08:31:44;4.60;99.90
32640;DHT22;19049;52.524;11.468;2024-02-26T08:34:10;4.70;99.90
32640;DHT22;19049;52.524;11.468;2024-02-26T08:36:36;4.80;99.90
32640;DHT22;19049;52.524;11.468;2024-02-26T08:39:02;4.90;99.90
32640;DHT22;19049;52.524;11.468;2024-02-26T08:41:27;5.00;99.90
32640;DHT22;19049;52.524;11.468;2024-02-26T08:43:53;5.20;99.90
32640;DHT22;19049;52.524;11.468;2024-02-26T08:46:20;5.40;99.90
32640;DHT22;19049;52.524;11.468;2024-02-26T08:48:46;5.50;99.90
32640;DHT22;19049;52.524;11.468;2024-02-26T08:51:11;5.60;99.90
32640;DHT22;19049;52.524;11.468;2024-02-26T08:53:38;5.80;99.90
32640;DHT22;19049;52.524;11.468;2024-02-26T08:56:04;5.90;99.90
32640;DHT22;19049;52.524;11.468;2024-02-26T08:58:30;6.00;99.90
32640;DHT22;19049;52.524;11.468;2024-02-26T09:00:56;6.10;99.90
32640;DHT22;19049;52.524;11.468;2024-02-26T09:03:22;6.30;99.90
32640;DHT22;19049;52.524;11.468;2024-02-26T09:05:48;6.50;99.90
32640;DHT22;19049;52.524;11.468;2024-02-26T09:08:13;6.60;99.90
32640;DHT22;19049;52.524;11.468;2024-02-26T09:10:39;6.80;99.90
32640;DHT22;19049;52.524;11.468;2024-02-26T09:13:05;7.00;99.90
32640;DHT22;19049;52.524;11.468;2024-02-26T09:15:30;7.10;99.90
32640;DHT22;19049;52.524;11.468;2024-02-26T09:17:56;7.20;99.90
32640;DHT22;19049;52.524;11.468;2024-02-26T09:20:22;7.40;99.90
32640;DHT22;19049;52.524;11.468;2024-02-26T09:22:49;7.50;99.90
32640;DHT22;19049;52.524;11.468;2024-02-26T09:25:15;7.50;99.90
32640;DHT22;19049;52.524;11.468;2024-02-26T09:27:41;7.60;99.90
32640;DHT22;19049;52.524;11.468;2024-02-26T09:30:09;7.70;99.90
32640;DHT22;19049;52.524;11.468;2024-02-26T09:32:35;7.80;99.90
32640;DHT22;19049;52.524;11.468;2024-02-26T09:35:01;7.90;99.90
32640;DHT22;19049;52.524;11.468;2024-02-26T09:37:27;8.00;99.90
32640;DHT22;19049;52.524;11.468;2024-02-26T09:39:52;8.10;99.90
32640;DHT22;19049;52.524;11.468;2024-02-26T09:42:19;8.20;99.90
32640;DHT22;19049;52.524;11.468;2024-02-26T09:44:45;8.30;99.90
32640;DHT22;19049;52.524;11.468;2024-02-26T09:47:12;8.50;99.90
32640;DHT22;19049;52.524;11.468;2024-02-26T09:49:43;8.60;99.90
32640;DHT22;19049;52.524;11.468;2024-02-26T09:52:09;8.70;99.90
32640;DHT22;19049;52.524;11.468;2024-02-26T09:54:35;8.90;99.90
32640;DHT22;19049;52.524;11.468;2024-02-26T09:57:03;9.00;99.90
32640;DHT22;19049;52.524;11.468;2024-02-26T09:59:36;9.20;99.90
32640;DHT22;19049;52.524;11.468;2024-02-26T10:02:04;9.30;99.90
32640;DHT22;19049;52.524;11.468;2024-02-26T10:04:31;9.50;99.90
32640;DHT22;19049;52.524;11.468;2024-02-26T10:06:57;9.70;99.90
32640;DHT22;19049;52.524;11.468;2024-02-26T10:09:25;9.90;99.90
32640;DHT22;19049;52.524;11.468;2024-02-26T10:11:51;10.00;99.90
32640;DHT22;19049;52.524;11.468;2024-02-26T10:14:17;10.20;99.90
32640;DHT22;19049;52.524;11.468;2024-02-26T10:16:42;10.30;99.90
32640;DHT22;19049;52.524;11.468;2024-02-26T10:19:08;10.40;99.90
32640;DHT22;19049;52.524;11.468;2024-02-26T10:21:36;10.50;99.90
32640;DHT22;19049;52.524;11.468;2024-02-26T10:24:02;10.60;99.90
32640;DHT22;19049;52.524;11.468;2024-02-26T10:26:27;10.70;99.90
32640;DHT22;19049;52.524;11.468;2024-02-26T10:28:53;10.70;99.90
32640;DHT22;19049;52.524;11.468;2024-02-26T10:31:18;10.80;99.90
32640;DHT22;19049;52.524;11.468;2024-02-26T10:33:44;10.90;99.90
32640;DHT22;19049;52.524;11.468;2024-02-26T10:36:10;11.00;99.90
32640;DHT22;19049;52.524;11.468;2024-02-26T10:38:37;11.00;99.90
32640;DHT22;19049;52.524;11.468;2024-02-26T10:41:03;11.10;99.90
32640;DHT22;19049;52.524;11.468;2024-02-26T10:43:29;11.10;99.90
32640;DHT22;19049;52.524;11.468;2024-02-26T10:45:56;11.10;99.90
32640;DHT22;19049;52.524;11.468;2024-02-26T10:48:22;11.10;99.90
32640;DHT22;19049;52.524;11.468;2024-02-26T10:50:48;11.10;99.90
32640;DHT22;19049;52.524;11.468;2024-02-26T10:53:17;11.10;99.90
32640;DHT22;19049;52.524;11.468;2024-02-26T10:56:04;11.10;99.90
32640;DHT22;19049;52.524;11.468;2024-02-26T10:58:31;11.10;99.90
32640;DHT22;19049;52.524;11.468;2024-02-26T11:00:57;11.10;99.90
32640;DHT22;19049;52.524;11.468;2024-02-26T11:03:25;11.10;99.90
32640;DHT22;19049;52.524;11.468;2024-02-26T11:05:50;11.10;99.90
32640;DHT22;19049;52.524;11.468;2024-02-26T11:08:19;11.10;99.90
32640;DHT22;19049;52.524;11.468;2024-02-26T11:10:52;11.10;99.90
32640;DHT22;19049;52.524;11.468;2024-02-26T11:13:18;11.20;99.90
32640;DHT22;19049;52.524;11.468;2024-02-26T11:15:46;11.20;99.90
32640;DHT22;19049;52.524;11.468;2024-02-26T11:18:15;11.30;99.90
32640;DHT22;19049;52.524;11.468;2024-02-26T11:20:42;11.40;99.90
32640;DHT22;19049;52.524;11.468;2024-02-26T11:23:08;11.40;99.90
32640;DHT22;19049;52.524;11.468;2024-02-26T11:25:35;11.50;99.90
32640;DHT22;19049;52.524;11.468;2024-02-26T11:28:05;11.50;99.90
32640;DHT22;19049;52.524;11.468;2024-02-26T11:30:34;11.60;99.90
32640;DHT22;19049;52.524;11.468;2024-02-26T11:33:00;11.70;99.90
32640;DHT22;19049;52.524;11.468;2024-02-26T11:35:28;11.70;99.90
32640;DHT22;19049;52.524;11.468;2024-02-26T11:37:55;11.70;99.90
32640;DHT22;19049;52.524;11.468;2024-02-26T11:40:24;11.80;99.90
32640;DHT22;19049;52.524;11.468;2024-02-26T11:42:50;11.80;99.90
32640;DHT22;19049;52.524;11.468;2024-02-26T11:48:21;11.90;99.90
32640;DHT22;19049;52.524;11.468;2024-02-26T11:50:52;11.90;99.90
32640;DHT22;19049;52.524;11.468;2024-02-26T11:58:47;12.00;99.90
32640;DHT22;19049;52.524;11.468;2024-02-26T12:01:50;12.00;99.90
32640;DHT22;19049;52.524;11.468;2024-02-26T12:04:27;12.00;99.90
32640;DHT22;19049;52.524;11.468;2024-02-26T12:07:00;12.00;99.90
32640;DHT22;19049;52.524;11.468;2024-02-26T12:12:13;12.00;99.90
32640;DHT22;19049;52.524;11.468;2024-02-26T12:14:53;12.00;99.90
32640;DHT22;19049;52.524;11.468;2024-02-26T12:17:23;12.10;99.90
32640;DHT22;19049;52.524;11.468;2024-02-26T12:19:49;12.10;99.90
32640;DHT22;19049;52.524;11.468;2024-02-26T12:22:17;12.10;99.90
32640;DHT22;19049;52.524;11.468;2024-02-26T12:24:43;12.10;99.90
32640;DHT22;19049;52.524;11.468;2024-02-26T12:27:08;12.10;99.90
32640;DHT22;19049;52.524;11.468;2024-02-26T12:29:34;12.10;99.90
32640;DHT22;19049;52.524;11.468;2024-02-26T12:32:01;12.10;99.90
32640;DHT22;19049;52.524;11.468;2024-02-26T12:34:27;12.10;99.90
32640;DHT22;19049;52.524;11.468;2024-02-26T12:36:54;12.00;99.90
32640;DHT22;19049;52.524;11.468;2024-02-26T12:39:20;12.00;99.90
32640;DHT22;19049;52.524;11.468;2024-02-26T12:41:46;12.00;99.90
32640;DHT22;19049;52.524;11.468;2024-02-26T12:44:18;12.00;99.90
32640;DHT22;19049;52.524;11.468;2024-02-26T12:46:44;12.00;99.90
32640;DHT22;19049;52.524;11.468;2024-02-26T12:49:15;12.00;99.90
32640;DHT22;19049;52.524;11.468;2024-02-26T12:51:41;12.00;99.90
32640;DHT22;19049;52.524;11.468;2024-02-26T12:54:07;12.10;99.90
32640;DHT22;19049;52.524;11.468;2024-02-26T12:56:34;12.10;99.90
32640;DHT22;19049;52.524;11.468;2024-02-26T12:59:00;12.10;99.90
32640;DHT22;19049;52.524;11.468;2024-02-26T13:01:26;12.10;99.90
32640;DHT22;19049;52.524;11.468;2024-02-26T13:03:53;12.20;99.90
32640;DHT22;19049;52.524;11.468;2024-02-26T13:06:19;12.20;99.90
32640;DHT22;19049;52.524;11.468;2024-02-26T13:08:47;12.20;99.90
32640;DHT22;19049;52.524;11.468;2024-02-26T13:11:13;12.20;99.90
32640;DHT22;19049;52.524;11.468;2024-02-26T13:13:39;12.20;99.90
32640;DHT22;19049;52.524;11.468;2024-02-26T13:16:13;12.30;99.90
32640;DHT22;19049;52.524;11.468;2024-02-26T13:18:39;12.30;99.90
32640;DHT22;19049;52.524;11.468;2024-02-26T13:21:14;12.30;99.90
32640;DHT22;19049;52.524;11.468;2024-02-26T13:23:41;12.30;99.90
32640;DHT22;19049;52.524;11.468;2024-02-26T13:26:08;12.30;99.90
32640;DHT22;19049;52.524;11.468;2024-02-26T13:28:34;12.30;99.90
32640;DHT22;19049;52.524;11.468;2024-02-26T13:31:00;12.40;99.90
32640;DHT22;19049;52.524;11.468;2024-02-26T13:33:30;12.30;99.90
32640;DHT22;19049;52.524;11.468;2024-02-26T13:35:56;12.30;99.90
32640;DHT22;19049;52.524;11.468;2024-02-26T13:38:22;12.30;99.90
32640;DHT22;19049;52.524;11.468;2024-02-26T13:40:50;12.30;99.90
32640;DHT22;19049;52.524;11.468;2024-02-26T13:43:15;12.30;99.90
32640;DHT22;19049;52.524;11.468;2024-02-26T13:45:41;12.30;99.90
32640;DHT22;19049;52.524;11.468;2024-02-26T13:48:08;12.30;99.90
32640;DHT22;19049;52.524;11.468;2024-02-26T13:50:38;12.30;99.90
32640;DHT22;19049;52.524;11.468;2024-02-26T13:53:04;12.20;99.90
32640;DHT22;19049;52.524;11.468;2024-02-26T13:55:31;12.20;99.90
32640;DHT22;19049;52.524;11.468;2024-02-26T13:57:58;12.20;99.90
32640;DHT22;19049;52.524;11.468;2024-02-26T14:00:24;12.30;99.90
32640;DHT22;19049;52.524;11.468;2024-02-26T14:02:50;12.30;99.90
32640;DHT22;19049;52.524;11.468;2024-02-26T14:05:16;12.30;99.90
32640;DHT22;19049;52.524;11.468;2024-02-26T14:07:42;12.30;99.90
32640;DHT22;19049;52.524;11.468;2024-02-26T14:10:08;12.30;99.90
32640;DHT22;19049;52.524;11.468;2024-02-26T14:12:35;12.30;99.90
32640;DHT22;19049;52.524;11.468;2024-02-26T14:15:01;12.30;99.90
32640;DHT22;19049;52.524;11.468;2024-02-26T14:17:30;12.30;99.90
32640;DHT22;19049;52.524;11.468;2024-02-26T14:19:56;12.40;99.90
32640;DHT22;19049;52.524;11.468;2024-02-26T14:22:21;12.40;99.90
32640;DHT22;19049;52.524;11.468;2024-02-26T14:24:47;12.30;99.90
32640;DHT22;19049;52.524;11.468;2024-02-26T14:27:13;12.40;99.90
32640;DHT22;19049;52.524;11.468;2024-02-26T14:29:46;12.30;99.90
32640;DHT22;19049;52.524;11.468;2024-02-26T14:32:12;12.30;99.90
32640;DHT22;19049;52.524;11.468;2024-02-26T14:34:38;12.30;99.90
32640;DHT22;19049;52.524;11.468;2024-02-26T14:37:04;12.30;99.90
32640;DHT22;19049;52.524;11.468;2024-02-26T14:39:33;12.30;99.90
32640;DHT22;19049;52.524;11.468;2024-02-26T14:42:00;12.30;99.90
32640;DHT22;19049;52.524;11.468;2024-02-26T14:44:26;12.30;99.90
32640;DHT22;19049;52.524;11.468;2024-02-26T14:46:51;12.30;99.90
32640;DHT22;19049;52.524;11.468;2024-02-26T14:49:17;12.30;99.90
32640;DHT22;19049;52.524;11.468;2024-02-26T14:51:46;12.30;99.90
32640;DHT22;19049;52.524;11.468;2024-02-26T14:54:13;12.20;99.90
32640;DHT22;19049;52.524;11.468;2024-02-26T14:56:39;12.20;99.90
32640;DHT22;19049;52.524;11.468;2024-02-26T14:59:05;12.20;99.90
32640;DHT22;19049;52.524;11.468;2024-02-26T15:01:30;12.20;99.90
32640;DHT22;19049;52.524;11.468;2024-02-26T15:03:56;12.20;99.90
32640;DHT22;19049;52.524;11.468;2024-02-26T15:06:25;12.20;99.90
32640;DHT22;19049;52.524;11.468;2024-02-26T15:08:52;12.20;99.90
32640;DHT22;19049;52.524;11.468;2024-02-26T15:11:17;12.20;99.90
32640;DHT22;19049;52.524;11.468;2024-02-26T15:13:43;12.20;99.90
32640;DHT22;19049;52.524;11.468;2024-02-26T15:16:08;12.20;99.90
32640;DHT22;19049;52.524;11.468;2024-02-26T15:18:36;12.20;99.90
32640;DHT22;19049;52.524;11.468;2024-02-26T15:21:02;12.20;99.90
32640;DHT22;19049;52.524;11.468;2024-02-26T15:23:28;12.20;99.90
32640;DHT22;19049;52.524;11.468;2024-02-26T15:25:54;12.20;99.90
32640;DHT22;19049;52.524;11.468;2024-02-26T15:28:20;12.20;99.90
32640;DHT22;19049;52.524;11.468;2024-02-26T15:30:46;12.10;99.90
32640;DHT22;19049;52.524;11.468;2024-02-26T15:33:11;12.10;99.90